Time;durP1;ratioP1;P1;durP2;ratioP2;P2;SDS_P1;SDS_P2;PMS_P1;PMS_P2;Temp;Humidity;BMP_temperature;BMP_pressure;BME280_temperature;BME280_humidity;BME280_pressure;Samples;Min_cycle;Max_cycle;Signal;HPM_P1;HPM_P2
2021/05/18 00:00:31;0.00;0.00;0.62;0.00;0.00;0.62;1.87;1.30;;;27.70;26.70;;;;;;2226141;62;20391;-62
2021/05/18 00:02:58;0.00;0.00;0.62;0.00;0.00;0.62;1.90;1.20;;;27.70;26.80;;;;;;2225338;62;20371;-61
2021/05/18 00:06:11;0.00;0.00;0.62;0.00;0.00;0.62;1.60;1.10;;;27.70;26.80;;;;;;2225999;62;20363;-63
2021/05/18 00:12:09;0.00;0.00;0.62;0.00;0.00;0.62;1.83;1.30;;;27.70;26.90;;;;;;2225727;62;20366;-62
2021/05/18 00:14:36;0.00;0.00;0.62;0.00;0.00;0.62;1.63;1.07;;;27.70;26.90;;;;;;2226221;62;20372;-62
2021/05/18 00:17:03;0.00;0.00;0.62;0.00;0.00;0.62;1.40;1.00;;;27.70;27.00;;;;;;2225530;62;20746;-61
2021/05/18 00:19:30;0.00;0.00;0.62;0.00;0.00;0.62;2.33;1.40;;;27.70;27.00;;;;;;2225836;62;20597;-61
2021/05/18 00:21:57;0.00;0.00;0.62;0.00;0.00;0.62;1.63;1.03;;;27.70;26.90;;;;;;2226094;62;20450;-62
2021/05/18 00:24:25;0.00;0.00;0.62;0.00;0.00;0.62;3.00;1.10;;;27.70;26.80;;;;;;2225244;62;20374;-63
2021/05/18 00:26:51;0.00;0.00;0.62;0.00;0.00;0.62;1.17;0.70;;;27.70;26.80;;;;;;2225510;62;20406;-63
2021/05/18 00:29:18;0.00;0.00;0.62;0.00;0.00;0.62;1.60;1.10;;;27.70;26.70;;;;;;2225923;62;20437;-62
2021/05/18 00:31:45;0.00;0.00;0.62;0.00;0.00;0.62;1.43;0.97;;;27.70;26.80;;;;;;2225281;62;20374;-62
2021/05/18 00:34:11;0.00;0.00;0.62;0.00;0.00;0.62;2.53;0.90;;;27.70;26.80;;;;;;2225542;62;20370;-63
2021/05/18 00:36:38;0.00;0.00;0.62;0.00;0.00;0.62;1.70;1.03;;;27.70;26.80;;;;;;2225863;62;20603;-62
2021/05/18 00:39:24;0.00;0.00;0.62;0.00;0.00;0.62;1.50;1.00;;;27.70;26.80;;;;;;2225359;62;20383;-62
2021/05/18 00:41:51;0.00;0.00;0.62;0.00;0.00;0.62;1.40;0.93;;;27.70;26.80;;;;;;2225512;62;20455;-63
2021/05/18 00:44:17;0.00;0.00;0.62;0.00;0.00;0.62;1.33;1.00;;;27.70;26.70;;;;;;2226094;62;20370;-63
2021/05/18 00:47:25;0.00;0.00;0.62;0.00;0.00;0.62;1.40;1.00;;;27.70;26.70;;;;;;2227820;62;20395;-62
2021/05/18 00:49:51;0.00;0.00;0.62;0.00;0.00;0.62;1.30;0.90;;;27.70;26.70;;;;;;2225665;62;20457;-62
2021/05/18 00:52:18;0.00;0.00;0.62;0.00;0.00;0.62;1.60;0.90;;;27.70;26.70;;;;;;2228735;62;20748;-64
2021/05/18 00:54:55;0.00;0.00;0.62;0.00;0.00;0.62;2.23;1.20;;;27.70;26.70;;;;;;2228067;62;20514;-64
2021/05/18 01:00:10;0.00;0.00;0.62;0.00;0.00;0.62;1.50;1.10;;;27.70;26.70;;;;;;2225853;62;20568;-62
2021/05/18 01:02:36;0.00;0.00;0.62;0.00;0.00;0.62;1.70;1.30;;;27.70;26.70;;;;;;2226049;62;20363;-62
2021/05/18 01:05:08;0.00;0.00;0.62;0.00;0.00;0.62;2.37;1.93;;;27.60;26.60;;;;;;2226602;62;20434;-62
2021/05/18 01:07:36;0.00;0.00;0.62;0.00;0.00;0.62;2.20;1.50;;;27.60;26.50;;;;;;2226370;62;20394;-64
2021/05/18 01:10:04;0.00;0.00;0.62;0.00;0.00;0.62;3.57;1.80;;;27.60;26.40;;;;;;2226103;62;20371;-63
2021/05/18 01:12:31;0.00;0.00;0.62;0.00;0.00;0.62;2.53;1.67;;;27.60;26.40;;;;;;2226549;62;20371;-63
2021/05/18 01:14:57;0.00;0.00;0.62;0.00;0.00;0.62;2.53;1.90;;;27.60;26.30;;;;;;2226375;62;20372;-64
2021/05/18 01:17:24;0.00;0.00;0.62;0.00;0.00;0.62;2.40;1.70;;;27.60;26.30;;;;;;2225538;62;20367;-62
2021/05/18 01:19:51;0.00;0.00;0.62;0.00;0.00;0.62;1.87;1.67;;;27.60;26.30;;;;;;2229420;62;20446;-63
2021/05/18 01:22:18;0.00;0.00;0.62;0.00;0.00;0.62;2.30;1.70;;;27.50;26.20;;;;;;2226389;62;20440;-64
2021/05/18 01:24:45;0.00;0.00;0.62;0.00;0.00;0.62;2.23;1.70;;;27.50;26.10;;;;;;2228671;62;20367;-66
2021/05/18 01:27:12;0.00;0.00;0.62;0.00;0.00;0.62;1.67;1.57;;;27.50;26.10;;;;;;2226456;62;20431;-64
2021/05/18 01:29:39;0.00;0.00;0.62;0.00;0.00;0.62;3.00;2.33;;;27.50;26.10;;;;;;2226300;62;20610;-64
2021/05/18 01:32:08;0.00;0.00;0.62;0.00;0.00;0.62;3.90;2.03;;;27.50;26.20;;;;;;2228783;62;20359;-63
2021/05/18 01:34:35;0.00;0.00;0.62;0.00;0.00;0.62;2.37;1.90;;;27.50;26.10;;;;;;2226574;62;20367;-63
2021/05/18 01:37:01;0.00;0.00;0.62;0.00;0.00;0.62;2.03;1.90;;;27.40;26.10;;;;;;2226231;62;20402;-64
2021/05/18 01:44:56;0.00;0.00;0.62;0.00;0.00;0.62;4.43;2.30;;;27.40;26.00;;;;;;2225792;62;20382;-65
2021/05/18 01:47:22;0.00;0.00;0.62;0.00;0.00;0.62;2.67;2.20;;;27.40;26.10;;;;;;2225280;62;20395;-64
2021/05/18 01:49:49;0.00;0.00;0.62;0.00;0.00;0.62;2.47;1.70;;;27.40;26.20;;;;;;2226531;62;20385;-62
2021/05/18 01:52:18;0.00;0.00;0.62;0.00;0.00;0.62;3.30;1.83;;;27.40;26.10;;;;;;2228818;62;20399;-63
2021/05/18 01:54:46;0.00;0.00;0.62;0.00;0.00;0.62;2.50;2.20;;;27.30;26.00;;;;;;2225349;62;20379;-63
2021/05/18 01:57:19;0.00;0.00;0.62;0.00;0.00;0.62;2.80;2.13;;;27.30;26.00;;;;;;2229254;62;20585;-63
2021/05/18 01:59:55;0.00;0.00;0.62;0.00;0.00;0.62;3.77;1.93;;;27.30;26.00;;;;;;2226256;62;20368;-64
2021/05/18 02:02:24;0.00;0.00;0.62;0.00;0.00;0.62;2.60;2.40;;;27.30;26.00;;;;;;2228480;62;20719;-65
2021/05/18 02:05:01;0.00;0.00;0.62;0.00;0.00;0.62;2.97;2.23;;;27.30;26.00;;;;;;2229141;62;20363;-65
2021/05/18 02:07:43;0.00;0.00;0.62;0.00;0.00;0.62;2.50;2.17;;;27.20;26.00;;;;;;2226095;62;20396;-64
2021/05/18 02:10:14;0.00;0.00;0.62;0.00;0.00;0.62;2.73;2.20;;;27.20;26.00;;;;;;2225766;62;20355;-64
2021/05/18 02:12:47;0.00;0.00;0.62;0.00;0.00;0.62;2.40;1.87;;;27.20;26.10;;;;;;2229128;62;20451;-63
2021/05/18 02:20:52;0.00;0.00;0.62;0.00;0.00;0.62;2.23;1.80;;;27.20;26.10;;;;;;2226367;62;20438;-62
2021/05/18 02:26:13;0.00;0.00;0.62;0.00;0.00;0.62;3.23;2.10;;;27.20;26.10;;;;;;2225847;62;20728;-62
2021/05/18 02:28:50;0.00;0.00;0.62;0.00;0.00;0.62;3.10;2.30;;;27.10;26.00;;;;;;2228527;62;20755;-62
2021/05/18 02:31:18;0.00;0.00;0.62;0.00;0.00;0.62;3.40;2.47;;;27.10;26.00;;;;;;2225959;62;20599;-62
2021/05/18 02:33:50;0.00;0.00;0.62;0.00;0.00;0.62;2.43;2.00;;;27.10;26.00;;;;;;2225930;62;20364;-62
2021/05/18 02:36:24;0.00;0.00;0.62;0.00;0.00;0.62;2.53;2.20;;;27.10;25.90;;;;;;2228716;62;20376;-63
2021/05/18 02:38:52;0.00;0.00;0.62;0.00;0.00;0.62;3.10;2.30;;;27.10;26.00;;;;;;2225671;62;20465;-63
2021/05/18 02:41:22;0.00;0.00;0.62;0.00;0.00;0.62;2.70;2.30;;;27.10;26.00;;;;;;2225828;62;20367;-63
2021/05/18 02:43:58;0.00;0.00;0.62;0.00;0.00;0.62;3.50;2.10;;;27.10;26.20;;;;;;2228821;62;20438;-61
2021/05/18 02:49:11;0.00;0.00;0.62;0.00;0.00;0.62;3.23;2.33;;;27.00;25.90;;;;;;2225711;62;20403;-64
2021/05/18 02:51:42;0.00;0.00;0.62;0.00;0.00;0.62;2.57;2.37;;;27.00;25.90;;;;;;2226053;62;20378;-64
2021/05/18 02:54:11;0.00;0.00;0.62;0.00;0.00;0.62;2.47;2.27;;;27.00;26.00;;;;;;2228533;62;20379;-63
2021/05/18 02:56:46;0.00;0.00;0.62;0.00;0.00;0.62;3.27;2.10;;;27.00;26.00;;;;;;2226317;62;20411;-64
2021/05/18 02:59:19;0.00;0.00;0.62;0.00;0.00;0.62;3.80;2.67;;;27.00;26.00;;;;;;2226139;62;20388;-65
2021/05/18 03:01:49;0.00;0.00;0.62;0.00;0.00;0.62;3.20;2.80;;;27.00;26.00;;;;;;2225754;62;20364;-63
2021/05/18 03:04:16;0.00;0.00;0.62;0.00;0.00;0.62;3.37;2.50;;;27.00;26.00;;;;;;2229041;62;20367;-63
2021/05/18 03:06:43;0.00;0.00;0.62;0.00;0.00;0.62;4.03;3.33;;;27.00;26.00;;;;;;2225520;62;20398;-65
2021/05/18 03:09:13;0.00;0.00;0.62;0.00;0.00;0.62;2.70;2.40;;;27.00;26.00;;;;;;2228327;62;20421;-64
2021/05/18 03:11:43;0.00;0.00;0.62;0.00;0.00;0.62;3.83;2.57;;;26.90;25.90;;;;;;2226178;62;20697;-64
2021/05/18 03:14:12;0.00;0.00;0.62;0.00;0.00;0.62;2.73;2.27;;;26.90;25.90;;;;;;2226105;62;20419;-64
2021/05/18 03:16:40;0.00;0.00;0.62;0.00;0.00;0.62;3.57;2.40;;;26.90;26.00;;;;;;2225611;62;20363;-63
2021/05/18 03:19:09;0.00;0.00;0.62;0.00;0.00;0.62;3.97;2.50;;;26.90;26.00;;;;;;2226229;62;20379;-63
2021/05/18 03:21:37;0.00;0.00;0.62;0.00;0.00;0.62;3.00;2.30;;;26.90;25.90;;;;;;2225912;62;20370;-65
2021/05/18 03:24:05;0.00;0.00;0.62;0.00;0.00;0.62;3.17;2.67;;;26.90;25.90;;;;;;2225375;62;20438;-65
2021/05/18 03:26:33;0.00;0.00;0.62;0.00;0.00;0.62;3.67;2.70;;;26.90;26.00;;;;;;2228880;62;20403;-63
2021/05/18 03:29:13;0.00;0.00;0.62;0.00;0.00;0.62;3.47;2.60;;;26.80;26.00;;;;;;2225884;62;20380;-63
2021/05/18 03:34:35;0.00;0.00;0.62;0.00;0.00;0.62;4.00;2.20;;;26.80;26.00;;;;;;2226265;62;20367;-65
2021/05/18 03:37:12;0.00;0.00;0.62;0.00;0.00;0.62;2.37;2.17;;;26.80;26.00;;;;;;2225641;62;20366;-64
2021/05/18 03:39:39;0.00;0.00;0.62;0.00;0.00;0.62;2.67;2.30;;;26.80;26.00;;;;;;2225698;62;20387;-65
2021/05/18 03:42:10;0.00;0.00;0.62;0.00;0.00;0.62;2.80;2.57;;;26.80;26.00;;;;;;2226214;62;20364;-65
2021/05/18 03:52:43;0.00;0.00;0.62;0.00;0.00;0.62;3.03;2.37;;;26.80;26.00;;;;;;2225446;62;20419;-65
2021/05/18 04:03:35;0.00;0.00;0.62;0.00;0.00;0.62;3.50;2.90;;;26.70;26.00;;;;;;2226211;62;20363;-64
2021/05/18 04:12:16;0.00;0.00;0.62;0.00;0.00;0.62;3.53;2.67;;;26.70;26.00;;;;;;2226166;62;20703;-63
2021/05/18 04:16:57;0.00;0.00;0.62;0.00;0.00;0.62;3.03;2.43;;;26.60;25.90;;;;;;2226006;62;20442;-63
2021/05/18 04:19:29;0.00;0.00;0.62;0.00;0.00;0.62;2.73;2.50;;;26.60;26.00;;;;;;2226024;62;20393;-63
2021/05/18 04:49:30;0.00;0.00;0.62;0.00;0.00;0.62;3.77;2.40;;;26.50;25.90;;;;;;2226337;62;20661;-65
2021/05/18 04:52:04;0.00;0.00;0.62;0.00;0.00;0.62;2.73;2.30;;;26.50;25.90;;;;;;2225997;62;20829;-65
2021/05/18 05:00:08;0.00;0.00;0.62;0.00;0.00;0.62;2.27;1.80;;;26.50;26.20;;;;;;2226129;62;20367;-63
2021/05/18 05:16:05;0.00;0.00;0.62;0.00;0.00;0.62;2.20;2.00;;;26.50;26.30;;;;;;2226495;62;20683;-65
2021/05/18 05:18:31;0.00;0.00;0.62;0.00;0.00;0.62;3.00;1.80;;;26.50;26.30;;;;;;2226315;62;20432;-64
2021/05/18 05:20:59;0.00;0.00;0.62;0.00;0.00;0.62;2.67;2.00;;;26.50;26.30;;;;;;2225678;62;20415;-60
2021/05/18 05:23:25;0.00;0.00;0.62;0.00;0.00;0.62;2.40;2.03;;;26.50;26.30;;;;;;2226499;62;20408;-60
2021/05/18 05:25:52;0.00;0.00;0.62;0.00;0.00;0.62;2.03;1.60;;;26.50;26.30;;;;;;2226379;62;20365;-62
2021/05/18 05:28:18;0.00;0.00;0.62;0.00;0.00;0.62;2.83;2.13;;;26.50;26.30;;;;;;2225720;62;20386;-62
2021/05/18 05:30:45;0.00;0.00;0.62;0.00;0.00;0.62;2.83;2.03;;;26.60;26.30;;;;;;2225994;62;20367;-66
2021/05/18 05:33:12;0.00;0.00;0.62;0.00;0.00;0.62;3.97;1.70;;;26.50;26.30;;;;;;2226237;62;20395;-64
2021/05/18 05:35:38;0.00;0.00;0.62;0.00;0.00;0.62;4.57;2.37;;;26.50;26.30;;;;;;2225800;62;20360;-62
2021/05/18 05:38:06;0.00;0.00;0.62;0.00;0.00;0.62;3.80;2.20;;;26.50;26.30;;;;;;2226030;62;20724;-65
2021/05/18 05:40:34;0.00;0.00;0.62;0.00;0.00;0.62;2.63;2.13;;;26.50;26.30;;;;;;2226554;62;20456;-65
2021/05/18 05:43:00;0.00;0.00;0.62;0.00;0.00;0.62;3.10;2.20;;;26.50;26.30;;;;;;2225614;62;20363;-63
2021/05/18 05:45:27;0.00;0.00;0.62;0.00;0.00;0.62;2.20;2.00;;;26.60;26.30;;;;;;2225770;62;20368;-64
2021/05/18 05:47:53;0.00;0.00;0.62;0.00;0.00;0.62;1.80;1.60;;;26.50;26.30;;;;;;2226296;62;20391;-62
2021/05/18 05:50:20;0.00;0.00;0.62;0.00;0.00;0.62;2.83;2.13;;;26.50;26.30;;;;;;2225602;62;20371;-62
2021/05/18 05:52:46;0.00;0.00;0.62;0.00;0.00;0.62;3.60;2.03;;;26.60;26.30;;;;;;2226031;62;20419;-66
2021/05/18 05:55:14;0.00;0.00;0.62;0.00;0.00;0.62;2.03;1.83;;;26.60;26.30;;;;;;2226583;62;20501;-62
2021/05/18 05:57:41;0.00;0.00;0.62;0.00;0.00;0.62;2.37;2.03;;;26.60;26.30;;;;;;2225430;62;20428;-64
2021/05/18 06:00:11;0.00;0.00;0.62;0.00;0.00;0.62;3.17;2.33;;;26.60;26.30;;;;;;2225901;62;20791;-66
2021/05/18 06:02:38;0.00;0.00;0.62;0.00;0.00;0.62;2.30;1.80;;;26.50;26.20;;;;;;2226667;62;20370;-62
2021/05/18 06:05:06;0.00;0.00;0.62;0.00;0.00;0.62;1.70;1.40;;;26.50;26.20;;;;;;2225548;62;20368;-64
2021/05/18 06:07:34;0.00;0.00;0.62;0.00;0.00;0.62;2.00;1.47;;;26.50;26.20;;;;;;2225821;62;20392;-62
2021/05/18 06:10:06;0.00;0.00;0.62;0.00;0.00;0.62;1.97;1.80;;;26.50;26.20;;;;;;2226497;62;20367;-64
2021/05/18 06:12:54;0.00;0.00;0.62;0.00;0.00;0.62;1.90;1.60;;;26.50;26.20;;;;;;2225309;62;20360;-64
2021/05/18 06:29:45;0.00;0.00;0.62;0.00;0.00;0.62;2.90;1.60;;;26.50;26.20;;;;;;2226293;62;20402;-62
2021/05/18 06:34:35;0.00;0.00;0.62;0.00;0.00;0.62;2.27;1.67;;;26.50;26.30;;;;;;2225613;62;20371;-64
2021/05/18 06:41:09;0.00;0.00;0.62;0.00;0.00;0.62;3.50;1.70;;;26.50;26.30;;;;;;2225954;62;20364;-64
2021/05/18 06:43:01;0.00;0.00;0.62;0.00;0.00;0.62;1.90;1.60;;;26.50;26.20;;;;;;2224809;62;20379;-63
2021/05/18 06:48:11;0.00;0.00;0.62;0.00;0.00;0.62;1.67;1.30;;;26.50;26.20;;;;;;2224941;62;20706;-65
2021/05/18 06:50:38;0.00;0.00;0.62;0.00;0.00;0.62;3.27;1.80;;;26.50;26.20;;;;;;2225608;62;20374;-60
2021/05/18 06:53:04;0.00;0.00;0.62;0.00;0.00;0.62;2.20;1.43;;;26.50;26.20;;;;;;2226236;62;20586;-64
2021/05/18 06:55:33;0.00;0.00;0.62;0.00;0.00;0.62;1.67;1.37;;;26.50;26.20;;;;;;2225657;62;20363;-66
2021/05/18 07:00:29;0.00;0.00;0.62;0.00;0.00;0.62;1.73;1.30;;;26.50;26.20;;;;;;2226344;62;20359;-66
2021/05/18 07:02:58;0.00;0.00;0.62;0.00;0.00;0.62;2.23;1.47;;;26.50;26.20;;;;;;2225656;62;20458;-63
2021/05/18 07:10:47;0.00;0.00;0.62;0.00;0.00;0.62;2.23;1.10;;;26.50;26.20;;;;;;2225459;62;20622;-64
2021/05/18 07:13:15;0.00;0.00;0.62;0.00;0.00;0.62;1.70;1.50;;;26.50;26.20;;;;;;2224959;62;20367;-65
2021/05/18 07:15:43;0.00;0.00;0.62;0.00;0.00;0.62;1.50;1.20;;;26.60;26.20;;;;;;2226258;62;20616;-65
2021/05/18 07:18:10;0.00;0.00;0.62;0.00;0.00;0.62;1.90;1.27;;;26.60;26.20;;;;;;2225276;62;20442;-62
2021/05/18 07:20:37;0.00;0.00;0.62;0.00;0.00;0.62;1.60;1.47;;;26.60;26.20;;;;;;2225751;62;20390;-66
2021/05/18 07:23:15;0.00;0.00;0.62;0.00;0.00;0.62;1.80;1.27;;;26.60;26.20;;;;;;2226148;62;20702;-64
2021/05/18 07:25:42;0.00;0.00;0.62;0.00;0.00;0.62;1.80;1.20;;;26.60;26.20;;;;;;2225315;62;20355;-63
2021/05/18 07:28:09;0.00;0.00;0.62;0.00;0.00;0.62;2.00;1.60;;;26.60;26.20;;;;;;2225526;62;20649;-65
2021/05/18 07:30:37;0.00;0.00;0.62;0.00;0.00;0.62;1.47;1.10;;;26.60;26.20;;;;;;2226083;62;20646;-63
2021/05/18 07:33:06;0.00;0.00;0.62;0.00;0.00;0.62;1.80;1.23;;;26.60;26.20;;;;;;2225308;62;20704;-64
2021/05/18 07:35:32;0.00;0.00;0.62;0.00;0.00;0.62;1.50;1.23;;;26.60;26.20;;;;;;2225634;62;20704;-63
2021/05/18 07:37:59;0.00;0.00;0.62;0.00;0.00;0.62;1.60;1.30;;;26.60;26.20;;;;;;2225984;62;20611;-64
2021/05/18 07:40:26;0.00;0.00;0.62;0.00;0.00;0.62;1.40;1.20;;;26.70;26.20;;;;;;2225437;62;20363;-63
2021/05/18 07:42:52;0.00;0.00;0.62;0.00;0.00;0.62;1.50;1.10;;;26.70;26.20;;;;;;2225533;62;20382;-65
2021/05/18 07:45:21;0.00;0.00;0.62;0.00;0.00;0.62;1.70;1.33;;;26.70;26.20;;;;;;2226033;62;20517;-66
2021/05/18 07:47:47;0.00;0.00;0.62;0.00;0.00;0.62;1.73;1.00;;;26.70;26.20;;;;;;2225353;62;20449;-65
2021/05/18 07:50:21;0.00;0.00;0.62;0.00;0.00;0.62;1.50;1.20;;;26.70;26.20;;;;;;2225346;62;20453;-64
2021/05/18 08:01:17;0.00;0.00;0.62;0.00;0.00;0.62;1.30;1.00;;;26.80;26.10;;;;;;2225904;62;20451;-66
2021/05/18 08:06:31;0.00;0.00;0.62;0.00;0.00;0.62;1.70;1.20;;;26.80;26.10;;;;;;2225983;62;20609;-64
2021/05/18 08:08:58;0.00;0.00;0.62;0.00;0.00;0.62;1.40;1.07;;;26.80;26.20;;;;;;2225627;62;20397;-63
2021/05/18 08:11:25;0.00;0.00;0.62;0.00;0.00;0.62;1.60;1.20;;;26.80;26.20;;;;;;2224439;62;20366;-67
2021/05/18 08:13:54;0.00;0.00;0.62;0.00;0.00;0.62;1.50;1.13;;;26.80;26.10;;;;;;2225692;62;20374;-64
2021/05/18 08:19:24;0.00;0.00;0.62;0.00;0.00;0.62;1.40;1.00;;;26.80;26.10;;;;;;2225242;62;20730;-64
2021/05/18 10:27:36;0.00;0.00;0.62;0.00;0.00;0.62;1.40;1.00;;;27.30;26.00;;;;;;2225937;62;20462;-66
2021/05/18 10:34:54;0.00;0.00;0.62;0.00;0.00;0.62;1.50;1.20;;;27.40;26.00;;;;;;2226492;62;20407;-63
2021/05/18 10:37:31;0.00;0.00;0.62;0.00;0.00;0.62;1.40;1.17;;;27.40;25.90;;;;;;2225527;62;20575;-65
2021/05/18 10:40:29;0.00;0.00;0.62;0.00;0.00;0.62;1.40;1.20;;;27.40;25.90;;;;;;2225769;62;20434;-65
2021/05/18 10:43:19;0.00;0.00;0.62;0.00;0.00;0.62;1.60;1.20;;;27.40;25.80;;;;;;2226036;62;20762;-63
2021/05/18 10:46:11;0.00;0.00;0.62;0.00;0.00;0.62;1.60;1.17;;;27.40;25.80;;;;;;2225629;62;20729;-64
2021/05/18 10:49:07;0.00;0.00;0.62;0.00;0.00;0.62;1.50;1.03;;;27.50;25.90;;;;;;2226008;62;20485;-66
2021/05/18 10:51:53;0.00;0.00;0.62;0.00;0.00;0.62;1.50;1.07;;;27.50;25.90;;;;;;2226178;62;20366;-64
2021/05/18 10:54:30;0.00;0.00;0.62;0.00;0.00;0.62;1.60;1.30;;;27.50;25.90;;;;;;2225455;62;20638;-62
2021/05/18 10:57:17;0.00;0.00;0.62;0.00;0.00;0.62;1.77;1.20;;;27.50;25.90;;;;;;2226327;62;20612;-62
2021/05/18 10:59:48;0.00;0.00;0.62;0.00;0.00;0.62;1.63;1.30;;;27.50;25.90;;;;;;2225657;62;20568;-61
2021/05/18 11:02:19;0.00;0.00;0.62;0.00;0.00;0.62;1.70;1.20;;;27.60;26.40;;;;;;2225595;62;20626;-62
2021/05/18 11:04:48;0.00;0.00;0.62;0.00;0.00;0.62;1.73;1.50;;;27.60;25.80;;;;;;2226279;62;20399;-64
2021/05/18 11:07:20;0.00;0.00;0.62;0.00;0.00;0.62;1.40;1.20;;;27.60;25.80;;;;;;2225474;62;20408;-63
2021/05/18 11:09:48;0.00;0.00;0.62;0.00;0.00;0.62;1.40;1.00;;;27.70;25.90;;;;;;2225580;62;20375;-64
2021/05/18 11:12:17;0.00;0.00;0.62;0.00;0.00;0.62;1.57;1.20;;;27.70;25.80;;;;;;2226111;62;20584;-64
2021/05/18 11:14:50;0.00;0.00;0.62;0.00;0.00;0.62;1.47;1.10;;;27.70;25.80;;;;;;2225480;62;20600;-64
2021/05/18 11:17:29;0.00;0.00;0.62;0.00;0.00;0.62;1.50;1.10;;;27.70;25.80;;;;;;2225489;62;20411;-64
2021/05/18 11:20:10;0.00;0.00;0.62;0.00;0.00;0.62;1.77;1.20;;;27.80;25.80;;;;;;2226319;62;20367;-66
2021/05/18 11:25:42;0.00;0.00;0.62;0.00;0.00;0.62;1.70;1.10;;;27.80;25.70;;;;;;2225953;62;20371;-64
2021/05/18 11:28:14;0.00;0.00;0.62;0.00;0.00;0.62;1.40;1.20;;;27.90;25.80;;;;;;2226062;62;20397;-62
2021/05/18 11:30:43;0.00;0.00;0.62;0.00;0.00;0.62;1.50;1.20;;;27.90;25.80;;;;;;2227767;62;20701;-61
2021/05/18 11:33:10;0.00;0.00;0.62;0.00;0.00;0.62;1.43;1.17;;;27.90;25.70;;;;;;2226001;62;20363;-65
2021/05/18 11:35:36;0.00;0.00;0.62;0.00;0.00;0.62;1.50;1.27;;;27.90;25.70;;;;;;2226036;62;20378;-64
2021/05/18 11:38:10;0.00;0.00;0.62;0.00;0.00;0.62;1.93;1.30;;;27.90;25.70;;;;;;2225431;62;20387;-65
2021/05/18 11:40:46;0.00;0.00;0.62;0.00;0.00;0.62;1.60;1.10;;;28.00;25.70;;;;;;2226030;62;20371;-65
2021/05/18 11:43:24;0.00;0.00;0.62;0.00;0.00;0.62;1.50;1.40;;;28.00;25.60;;;;;;2225912;62;20363;-64
2021/05/18 11:46:02;0.00;0.00;0.62;0.00;0.00;0.62;1.43;1.20;;;28.00;25.60;;;;;;2225312;62;20360;-65
2021/05/18 11:48:29;0.00;0.00;0.62;0.00;0.00;0.62;3.23;1.30;;;28.00;25.60;;;;;;2226123;62;20697;-65
2021/05/18 11:51:06;0.00;0.00;0.62;0.00;0.00;0.62;1.50;1.20;;;28.00;25.60;;;;;;2226173;62;20363;-66
2021/05/18 11:53:38;0.00;0.00;0.62;0.00;0.00;0.62;1.67;1.23;;;28.10;25.70;;;;;;2225498;62;20366;-65
2021/05/18 11:56:24;0.00;0.00;0.62;0.00;0.00;0.62;2.00;1.67;;;28.10;25.70;;;;;;2226245;62;20367;-62
2021/05/18 11:59:00;0.00;0.00;0.62;0.00;0.00;0.62;1.50;1.20;;;28.10;25.70;;;;;;2225740;62;20388;-67
2021/05/18 12:01:28;0.00;0.00;0.62;0.00;0.00;0.62;1.80;1.37;;;28.10;25.60;;;;;;2225588;62;20360;-65
2021/05/18 12:04:04;0.00;0.00;0.62;0.00;0.00;0.62;1.50;1.20;;;28.10;25.60;;;;;;2228890;62;20370;-63
2021/05/18 12:06:34;0.00;0.00;0.62;0.00;0.00;0.62;1.60;1.20;;;28.20;25.60;;;;;;2225775;62;20390;-65
2021/05/18 12:09:02;0.00;0.00;0.62;0.00;0.00;0.62;1.50;1.20;;;28.20;25.60;;;;;;2225532;62;20418;-65
2021/05/18 12:11:29;0.00;0.00;0.62;0.00;0.00;0.62;1.60;1.40;;;28.20;25.50;;;;;;2226086;62;20451;-64
2021/05/18 12:13:55;0.00;0.00;0.62;0.00;0.00;0.62;1.50;1.20;;;28.30;25.50;;;;;;2225712;62;20360;-64
2021/05/18 12:16:24;0.00;0.00;0.62;0.00;0.00;0.62;2.43;1.67;;;28.30;25.50;;;;;;2225582;62;20473;-62
2021/05/18 12:18:53;0.00;0.00;0.62;0.00;0.00;0.62;1.97;1.60;;;28.30;25.50;;;;;;2226066;62;20394;-64
2021/05/18 12:21:23;0.00;0.00;0.62;0.00;0.00;0.62;1.67;1.53;;;28.30;25.50;;;;;;2225719;62;20363;-66
2021/05/18 12:24:09;0.00;0.00;0.62;0.00;0.00;0.62;2.00;1.67;;;28.30;25.40;;;;;;2225562;62;20421;-65
2021/05/18 12:26:50;0.00;0.00;0.62;0.00;0.00;0.62;1.77;1.40;;;28.30;25.40;;;;;;2226058;62;20399;-63
2021/05/18 12:29:36;0.00;0.00;0.62;0.00;0.00;0.62;1.90;1.40;;;28.30;25.40;;;;;;2225798;62;20395;-61
2021/05/18 12:32:18;0.00;0.00;0.62;0.00;0.00;0.62;1.63;1.27;;;28.30;25.40;;;;;;2225685;62;20359;-63
2021/05/18 12:34:46;0.00;0.00;0.62;0.00;0.00;0.62;1.70;1.40;;;28.30;25.40;;;;;;2226301;62;20687;-63
2021/05/18 12:37:13;0.00;0.00;0.62;0.00;0.00;0.62;1.70;1.27;;;28.30;25.40;;;;;;2225393;62;20362;-64
2021/05/18 12:39:44;0.00;0.00;0.62;0.00;0.00;0.62;2.00;1.60;;;28.30;25.40;;;;;;2228393;62;20383;-66
2021/05/18 12:42:15;0.00;0.00;0.62;0.00;0.00;0.62;2.00;1.77;;;28.30;25.40;;;;;;2226274;62;20570;-65
2021/05/18 12:44:55;0.00;0.00;0.62;0.00;0.00;0.62;2.00;1.70;;;28.30;25.40;;;;;;2225348;62;20370;-66
2021/05/18 12:47:27;0.00;0.00;0.62;0.00;0.00;0.62;1.80;1.40;;;28.30;25.40;;;;;;2225755;62;20419;-63
2021/05/18 12:49:54;0.00;0.00;0.62;0.00;0.00;0.62;2.17;1.50;;;28.30;25.40;;;;;;2225991;62;20375;-64
2021/05/18 12:52:20;0.00;0.00;0.62;0.00;0.00;0.62;1.70;1.30;;;28.20;25.30;;;;;;2225310;62;20402;-66
2021/05/18 12:54:54;0.00;0.00;0.62;0.00;0.00;0.62;2.27;1.90;;;28.20;25.30;;;;;;2226051;62;20402;-64
2021/05/18 12:57:24;0.00;0.00;0.62;0.00;0.00;0.62;1.60;1.40;;;28.20;25.30;;;;;;2226720;62;20364;-64
2021/05/18 13:00:15;0.00;0.00;0.62;0.00;0.00;0.62;1.70;1.40;;;28.20;25.30;;;;;;2225714;62;20406;-65
2021/05/18 13:02:45;0.00;0.00;0.62;0.00;0.00;0.62;1.90;1.50;;;28.30;25.40;;;;;;2224756;62;20412;-65
2021/05/18 13:05:18;0.00;0.00;0.62;0.00;0.00;0.62;1.47;1.30;;;28.20;25.40;;;;;;2226304;62;20395;-67
2021/05/18 13:08:05;0.00;0.00;0.62;0.00;0.00;0.62;2.10;1.60;;;28.20;25.40;;;;;;2225871;62;20402;-65
2021/05/18 13:10:41;0.00;0.00;0.62;0.00;0.00;0.62;1.73;1.40;;;28.20;25.30;;;;;;2226769;62;20366;-67
2021/05/18 13:13:08;0.00;0.00;0.62;0.00;0.00;0.62;1.70;1.30;;;28.20;25.90;;;;;;2226253;62;20370;-64
2021/05/18 13:15:35;0.00;0.00;0.62;0.00;0.00;0.62;1.80;1.40;;;28.20;25.40;;;;;;2225982;62;20731;-63
2021/05/18 13:18:06;0.00;0.00;0.62;0.00;0.00;0.62;1.60;1.50;;;28.20;25.40;;;;;;2226532;62;20375;-64
2021/05/18 13:20:44;0.00;0.00;0.62;0.00;0.00;0.62;1.80;1.43;;;28.20;25.40;;;;;;2226293;62;20402;-65
2021/05/18 13:23:20;0.00;0.00;0.62;0.00;0.00;0.62;1.50;1.40;;;28.20;25.40;;;;;;2225964;62;20367;-66
2021/05/18 13:28:34;0.00;0.00;0.62;0.00;0.00;0.62;1.30;1.00;;;28.20;25.40;;;;;;2226129;62;20400;-62
2021/05/18 13:31:01;0.00;0.00;0.62;0.00;0.00;0.62;1.50;1.20;;;28.20;25.40;;;;;;2226020;62;20359;-64
2021/05/18 13:33:28;0.00;0.00;0.62;0.00;0.00;0.62;1.53;1.20;;;28.20;25.40;;;;;;2226714;62;20711;-64
2021/05/18 13:35:54;0.00;0.00;0.62;0.00;0.00;0.62;2.17;1.70;;;28.20;25.40;;;;;;2226153;62;20427;-65
2021/05/18 13:38:21;0.00;0.00;0.62;0.00;0.00;0.62;1.50;1.30;;;28.10;25.40;;;;;;2225943;62;20383;-64
2021/05/18 13:40:49;0.00;0.00;0.62;0.00;0.00;0.62;1.60;1.20;;;28.10;25.30;;;;;;2226701;62;20692;-65
2021/05/18 13:43:16;0.00;0.00;0.62;0.00;0.00;0.62;1.90;1.47;;;28.10;25.40;;;;;;2226083;62;20704;-63
2021/05/18 13:45:42;0.00;0.00;0.62;0.00;0.00;0.62;1.73;1.20;;;28.10;25.40;;;;;;2226021;62;20366;-64
2021/05/18 13:48:09;0.00;0.00;0.62;0.00;0.00;0.62;1.53;1.10;;;28.10;25.40;;;;;;2226491;62;20403;-60
2021/05/18 13:50:38;0.00;0.00;0.62;0.00;0.00;0.62;1.60;1.37;;;28.10;25.40;;;;;;2226038;62;20375;-63
2021/05/18 13:53:05;0.00;0.00;0.62;0.00;0.00;0.62;1.77;1.57;;;28.10;25.40;;;;;;2225903;62;20371;-65
2021/05/18 13:55:33;0.00;0.00;0.62;0.00;0.00;0.62;1.47;1.37;;;28.10;25.40;;;;;;2226799;62;20618;-63
2021/05/18 13:58:02;0.00;0.00;0.62;0.00;0.00;0.62;1.57;1.10;;;28.10;25.40;;;;;;2225996;62;20515;-63
2021/05/18 14:00:28;0.00;0.00;0.62;0.00;0.00;0.62;1.53;1.23;;;28.10;25.40;;;;;;2226077;62;20623;-64
2021/05/18 14:02:55;0.00;0.00;0.62;0.00;0.00;0.62;1.50;1.23;;;28.10;25.40;;;;;;2226747;62;20364;-65
2021/05/18 14:05:28;0.00;0.00;0.62;0.00;0.00;0.62;1.60;1.40;;;28.20;25.50;;;;;;2225494;62;20720;-64
2021/05/18 14:08:24;0.00;0.00;0.62;0.00;0.00;0.62;1.67;1.30;;;28.10;25.40;;;;;;2225711;62;20395;-62
2021/05/18 14:10:58;0.00;0.00;0.62;0.00;0.00;0.62;2.27;1.73;;;28.10;25.40;;;;;;2226548;62;20577;-65
2021/05/18 14:13:28;0.00;0.00;0.62;0.00;0.00;0.62;1.70;1.30;;;28.20;25.50;;;;;;2228483;62;20363;-63
2021/05/18 14:15:55;0.00;0.00;0.62;0.00;0.00;0.62;1.57;1.27;;;28.20;25.50;;;;;;2226341;62;20375;-65
2021/05/18 14:18:22;0.00;0.00;0.62;0.00;0.00;0.62;1.60;1.27;;;28.20;25.50;;;;;;2226381;62;20379;-63
2021/05/18 14:20:49;0.00;0.00;0.62;0.00;0.00;0.62;1.90;1.57;;;28.20;25.50;;;;;;2225838;62;20442;-64
2021/05/18 14:23:20;0.00;0.00;0.62;0.00;0.00;0.62;1.57;1.37;;;28.20;25.50;;;;;;2226323;62;20453;-66
2021/05/18 14:25:47;0.00;0.00;0.62;0.00;0.00;0.62;1.40;1.20;;;28.30;25.60;;;;;;2226503;62;20362;-66
2021/05/18 14:28:13;0.00;0.00;0.62;0.00;0.00;0.62;2.07;1.40;;;28.30;25.50;;;;;;2225645;62;20395;-65
2021/05/18 14:30:41;0.00;0.00;0.62;0.00;0.00;0.62;1.57;1.47;;;28.30;25.50;;;;;;2228928;62;20406;-65
2021/05/18 14:33:08;0.00;0.00;0.62;0.00;0.00;0.62;1.63;1.40;;;28.40;25.50;;;;;;2226477;62;20368;-66